Terminal Aerodrome Forecast
Issued by NWS

Home | Current Version | Previous Version | Text Only | Print | Product List | Glossary On
Versions: 1 2 3 4 5 6 7 8 9 10 11 12 13
000
FTUS45 KREV 211100
TAFMMH
TAF
KMMH 211124Z 2112/2212 VRB04KT P6SM SKC
     FM211900 11009KT P6SM FEW100
     FM212300 28009G17KT P6SM FEW100
     FM220200 30007KT P6SM SKC
      AMD NOT SKED 2112/2114=

USA.gov is the U.S. government's official web portal to all federal, state and local government web resources and services.